sensor_id;sensor_type;location;lat;lon;timestamp;P1;durP1;ratioP1;P2;durP2;ratioP2
37231;SDS011;23125;48.156;15.954;2022-10-31T00:02:07;7.70;;;4.15;;
37231;SDS011;23125;48.156;15.954;2022-10-31T00:04:33;7.72;;;4.13;;
37231;SDS011;23125;48.156;15.954;2022-10-31T00:06:58;4.85;;;4.07;;
37231;SDS011;23125;48.156;15.954;2022-10-31T00:09:24;5.05;;;4.40;;
37231;SDS011;23125;48.156;15.954;2022-10-31T00:11:50;4.35;;;3.80;;
37231;SDS011;23125;48.156;15.954;2022-10-31T00:14:16;4.07;;;3.67;;
37231;SDS011;23125;48.156;15.954;2022-10-31T00:16:42;8.43;;;4.10;;
37231;SDS011;23125;48.156;15.954;2022-10-31T00:19:08;6.60;;;4.03;;
37231;SDS011;23125;48.156;15.954;2022-10-31T00:21:34;7.85;;;4.75;;
37231;SDS011;23125;48.156;15.954;2022-10-31T00:24:00;6.38;;;4.10;;
37231;SDS011;23125;48.156;15.954;2022-10-31T00:26:27;5.00;;;4.50;;
37231;SDS011;23125;48.156;15.954;2022-10-31T00:28:54;6.32;;;4.68;;
37231;SDS011;23125;48.156;15.954;2022-10-31T00:31:20;4.72;;;3.97;;
37231;SDS011;23125;48.156;15.954;2022-10-31T00:33:46;6.72;;;3.90;;
37231;SDS011;23125;48.156;15.954;2022-10-31T00:36:12;6.90;;;5.05;;
37231;SDS011;23125;48.156;15.954;2022-10-31T00:38:41;6.35;;;4.57;;
37231;SDS011;23125;48.156;15.954;2022-10-31T00:41:08;5.95;;;4.90;;
37231;SDS011;23125;48.156;15.954;2022-10-31T00:46:03;5.93;;;4.57;;
37231;SDS011;23125;48.156;15.954;2022-10-31T00:48:29;6.75;;;5.43;;
37231;SDS011;23125;48.156;15.954;2022-10-31T00:50:55;7.22;;;5.00;;
37231;SDS011;23125;48.156;15.954;2022-10-31T00:53:21;6.47;;;4.70;;
37231;SDS011;23125;48.156;15.954;2022-10-31T00:55:47;6.20;;;4.65;;
37231;SDS011;23125;48.156;15.954;2022-10-31T00:58:13;7.15;;;5.07;;
37231;SDS011;23125;48.156;15.954;2022-10-31T01:00:39;6.22;;;4.47;;
37231;SDS011;23125;48.156;15.954;2022-10-31T01:03:05;6.07;;;3.97;;
37231;SDS011;23125;48.156;15.954;2022-10-31T01:05:31;6.75;;;4.70;;
37231;SDS011;23125;48.156;15.954;2022-10-31T01:07:57;6.03;;;4.45;;
37231;SDS011;23125;48.156;15.954;2022-10-31T01:10:24;5.18;;;4.05;;
37231;SDS011;23125;48.156;15.954;2022-10-31T01:12:50;6.75;;;4.53;;
37231;SDS011;23125;48.156;15.954;2022-10-31T01:15:19;7.32;;;4.95;;
37231;SDS011;23125;48.156;15.954;2022-10-31T01:17:47;7.95;;;4.43;;
37231;SDS011;23125;48.156;15.954;2022-10-31T01:20:14;6.38;;;4.57;;
37231;SDS011;23125;48.156;15.954;2022-10-31T01:22:41;6.03;;;4.40;;
37231;SDS011;23125;48.156;15.954;2022-10-31T01:25:07;8.95;;;4.70;;
37231;SDS011;23125;48.156;15.954;2022-10-31T01:27:34;6.97;;;4.65;;
37231;SDS011;23125;48.156;15.954;2022-10-31T01:30:00;6.45;;;4.70;;
37231;SDS011;23125;48.156;15.954;2022-10-31T01:32:26;5.38;;;4.30;;
37231;SDS011;23125;48.156;15.954;2022-10-31T01:34:54;6.95;;;4.15;;
37231;SDS011;23125;48.156;15.954;2022-10-31T01:37:20;5.15;;;4.00;;
37231;SDS011;23125;48.156;15.954;2022-10-31T01:39:47;5.88;;;3.97;;
37231;SDS011;23125;48.156;15.954;2022-10-31T01:42:18;6.03;;;4.13;;
37231;SDS011;23125;48.156;15.954;2022-10-31T01:44:54;6.07;;;3.80;;
37231;SDS011;23125;48.156;15.954;2022-10-31T01:47:42;6.55;;;4.68;;
37231;SDS011;23125;48.156;15.954;2022-10-31T01:50:13;7.20;;;5.25;;
37231;SDS011;23125;48.156;15.954;2022-10-31T01:52:45;9.80;;;6.57;;
37231;SDS011;23125;48.156;15.954;2022-10-31T01:55:33;17.08;;;10.63;;
37231;SDS011;23125;48.156;15.954;2022-10-31T01:58:09;9.90;;;6.15;;
37231;SDS011;23125;48.156;15.954;2022-10-31T02:00:38;7.72;;;4.57;;
37231;SDS011;23125;48.156;15.954;2022-10-31T02:03:07;7.95;;;5.57;;
37231;SDS011;23125;48.156;15.954;2022-10-31T02:05:33;6.65;;;4.45;;
37231;SDS011;23125;48.156;15.954;2022-10-31T02:08:04;5.65;;;4.18;;
37231;SDS011;23125;48.156;15.954;2022-10-31T02:10:36;7.38;;;4.32;;
37231;SDS011;23125;48.156;15.954;2022-10-31T02:13:04;7.00;;;4.80;;
37231;SDS011;23125;48.156;15.954;2022-10-31T02:15:32;5.68;;;4.35;;
37231;SDS011;23125;48.156;15.954;2022-10-31T02:18:00;6.43;;;4.28;;
37231;SDS011;23125;48.156;15.954;2022-10-31T02:20:28;6.78;;;4.30;;
37231;SDS011;23125;48.156;15.954;2022-10-31T02:26:12;5.32;;;3.70;;
37231;SDS011;23125;48.156;15.954;2022-10-31T02:34:56;5.28;;;3.97;;
37231;SDS011;23125;48.156;15.954;2022-10-31T02:37:34;7.40;;;4.13;;
37231;SDS011;23125;48.156;15.954;2022-10-31T02:42:38;5.57;;;3.83;;
37231;SDS011;23125;48.156;15.954;2022-10-31T02:48:31;5.22;;;3.70;;
37231;SDS011;23125;48.156;15.954;2022-10-31T02:51:03;4.85;;;3.22;;
37231;SDS011;23125;48.156;15.954;2022-10-31T02:53:33;5.18;;;3.72;;
37231;SDS011;23125;48.156;15.954;2022-10-31T02:56:10;5.20;;;3.60;;
37231;SDS011;23125;48.156;15.954;2022-10-31T02:59:02;7.88;;;3.58;;
37231;SDS011;23125;48.156;15.954;2022-10-31T03:12:25;6.28;;;2.50;;
37231;SDS011;23125;48.156;15.954;2022-10-31T03:17:53;2.83;;;1.88;;
37231;SDS011;23125;48.156;15.954;2022-10-31T03:20:27;8.07;;;2.50;;
37231;SDS011;23125;48.156;15.954;2022-10-31T03:23:05;4.43;;;2.25;;
37231;SDS011;23125;48.156;15.954;2022-10-31T03:25:36;2.80;;;2.08;;
37231;SDS011;23125;48.156;15.954;2022-10-31T03:28:04;4.88;;;2.97;;
37231;SDS011;23125;48.156;15.954;2022-10-31T03:30:33;5.88;;;2.58;;
37231;SDS011;23125;48.156;15.954;2022-10-31T03:33:03;5.78;;;2.45;;
37231;SDS011;23125;48.156;15.954;2022-10-31T03:35:34;3.17;;;2.30;;
37231;SDS011;23125;48.156;15.954;2022-10-31T03:38:01;3.40;;;1.63;;
37231;SDS011;23125;48.156;15.954;2022-10-31T03:40:28;2.28;;;2.05;;
37231;SDS011;23125;48.156;15.954;2022-10-31T03:43:00;3.13;;;1.90;;
37231;SDS011;23125;48.156;15.954;2022-10-31T03:45:32;4.28;;;2.30;;
37231;SDS011;23125;48.156;15.954;2022-10-31T03:48:06;5.43;;;2.08;;
37231;SDS011;23125;48.156;15.954;2022-10-31T03:50:39;5.47;;;2.00;;
37231;SDS011;23125;48.156;15.954;2022-10-31T03:53:19;3.72;;;1.90;;
37231;SDS011;23125;48.156;15.954;2022-10-31T03:55:59;2.38;;;2.05;;
37231;SDS011;23125;48.156;15.954;2022-10-31T03:58:34;2.93;;;2.17;;
37231;SDS011;23125;48.156;15.954;2022-10-31T04:01:05;3.33;;;2.03;;
37231;SDS011;23125;48.156;15.954;2022-10-31T04:03:34;3.22;;;2.10;;
37231;SDS011;23125;48.156;15.954;2022-10-31T04:06:04;2.95;;;2.00;;
37231;SDS011;23125;48.156;15.954;2022-10-31T04:08:35;3.60;;;2.20;;
37231;SDS011;23125;48.156;15.954;2022-10-31T04:11:07;2.88;;;2.00;;
37231;SDS011;23125;48.156;15.954;2022-10-31T04:13:35;3.28;;;2.10;;
37231;SDS011;23125;48.156;15.954;2022-10-31T04:16:04;2.97;;;2.08;;
37231;SDS011;23125;48.156;15.954;2022-10-31T04:18:31;2.90;;;2.28;;
37231;SDS011;23125;48.156;15.954;2022-10-31T04:21:03;2.47;;;1.90;;
37231;SDS011;23125;48.156;15.954;2022-10-31T04:23:31;2.80;;;2.40;;
37231;SDS011;23125;48.156;15.954;2022-10-31T04:25:58;3.88;;;2.10;;
37231;SDS011;23125;48.156;15.954;2022-10-31T04:28:24;3.17;;;2.10;;
37231;SDS011;23125;48.156;15.954;2022-10-31T04:30:50;2.83;;;2.00;;
37231;SDS011;23125;48.156;15.954;2022-10-31T04:33:17;2.47;;;1.85;;
37231;SDS011;23125;48.156;15.954;2022-10-31T04:35:43;3.47;;;2.25;;
37231;SDS011;23125;48.156;15.954;2022-10-31T04:38:10;2.10;;;1.90;;
37231;SDS011;23125;48.156;15.954;2022-10-31T04:40:35;2.85;;;2.20;;
37231;SDS011;23125;48.156;15.954;2022-10-31T04:43:01;2.95;;;1.65;;
37231;SDS011;23125;48.156;15.954;2022-10-31T04:45:27;3.08;;;1.40;;
37231;SDS011;23125;48.156;15.954;2022-10-31T04:47:53;7.70;;;1.67;;
37231;SDS011;23125;48.156;15.954;2022-10-31T04:50:19;11.27;;;2.17;;
37231;SDS011;23125;48.156;15.954;2022-10-31T04:52:45;10.32;;;3.20;;
37231;SDS011;23125;48.156;15.954;2022-10-31T04:55:12;11.07;;;1.83;;
37231;SDS011;23125;48.156;15.954;2022-10-31T04:57:42;14.27;;;2.88;;
37231;SDS011;23125;48.156;15.954;2022-10-31T05:00:10;3.72;;;1.80;;
37231;SDS011;23125;48.156;15.954;2022-10-31T05:02:56;12.55;;;2.72;;
37231;SDS011;23125;48.156;15.954;2022-10-31T05:05:23;5.07;;;2.00;;
37231;SDS011;23125;48.156;15.954;2022-10-31T05:07:52;5.47;;;2.08;;
37231;SDS011;23125;48.156;15.954;2022-10-31T05:10:21;5.50;;;1.77;;
37231;SDS011;23125;48.156;15.954;2022-10-31T05:12:53;5.85;;;1.63;;
37231;SDS011;23125;48.156;15.954;2022-10-31T05:15:21;4.28;;;1.63;;
37231;SDS011;23125;48.156;15.954;2022-10-31T05:17:49;7.18;;;2.30;;
37231;SDS011;23125;48.156;15.954;2022-10-31T05:20:16;6.20;;;1.55;;
37231;SDS011;23125;48.156;15.954;2022-10-31T05:22:44;2.58;;;1.45;;
37231;SDS011;23125;48.156;15.954;2022-10-31T05:25:12;3.50;;;1.42;;
37231;SDS011;23125;48.156;15.954;2022-10-31T05:27:39;2.85;;;1.35;;
37231;SDS011;23125;48.156;15.954;2022-10-31T05:30:09;9.75;;;1.90;;
37231;SDS011;23125;48.156;15.954;2022-10-31T05:32:39;4.60;;;1.85;;
37231;SDS011;23125;48.156;15.954;2022-10-31T05:35:06;9.55;;;3.40;;
37231;SDS011;23125;48.156;15.954;2022-10-31T05:37:36;6.28;;;3.08;;
37231;SDS011;23125;48.156;15.954;2022-10-31T05:40:05;3.83;;;2.30;;
37231;SDS011;23125;48.156;15.954;2022-10-31T05:42:33;4.60;;;2.33;;
37231;SDS011;23125;48.156;15.954;2022-10-31T05:45:00;8.52;;;1.95;;
37231;SDS011;23125;48.156;15.954;2022-10-31T05:47:26;2.85;;;2.15;;
37231;SDS011;23125;48.156;15.954;2022-10-31T05:49:52;8.88;;;2.40;;
37231;SDS011;23125;48.156;15.954;2022-10-31T05:52:18;6.38;;;2.85;;
37231;SDS011;23125;48.156;15.954;2022-10-31T05:54:43;8.35;;;1.92;;
37231;SDS011;23125;48.156;15.954;2022-10-31T05:57:09;10.25;;;4.18;;
37231;SDS011;23125;48.156;15.954;2022-10-31T05:59:35;6.97;;;3.97;;
37231;SDS011;23125;48.156;15.954;2022-10-31T06:02:01;10.10;;;3.17;;
37231;SDS011;23125;48.156;15.954;2022-10-31T06:04:27;19.15;;;6.72;;
37231;SDS011;23125;48.156;15.954;2022-10-31T06:06:53;14.43;;;5.40;;
37231;SDS011;23125;48.156;15.954;2022-10-31T06:09:19;13.05;;;4.28;;
37231;SDS011;23125;48.156;15.954;2022-10-31T06:11:44;10.20;;;4.53;;
37231;SDS011;23125;48.156;15.954;2022-10-31T06:14:10;5.40;;;2.75;;
37231;SDS011;23125;48.156;15.954;2022-10-31T06:16:36;6.93;;;3.03;;
37231;SDS011;23125;48.156;15.954;2022-10-31T06:19:02;11.00;;;3.30;;
37231;SDS011;23125;48.156;15.954;2022-10-31T06:21:28;7.57;;;3.17;;
37231;SDS011;23125;48.156;15.954;2022-10-31T06:23:53;6.80;;;2.30;;
37231;SDS011;23125;48.156;15.954;2022-10-31T06:26:19;6.07;;;2.53;;
37231;SDS011;23125;48.156;15.954;2022-10-31T06:28:45;12.90;;;2.50;;
37231;SDS011;23125;48.156;15.954;2022-10-31T06:31:11;12.65;;;2.22;;
37231;SDS011;23125;48.156;15.954;2022-10-31T06:33:36;11.82;;;2.70;;
37231;SDS011;23125;48.156;15.954;2022-10-31T06:36:02;5.43;;;2.35;;
37231;SDS011;23125;48.156;15.954;2022-10-31T06:38:28;14.43;;;2.58;;
37231;SDS011;23125;48.156;15.954;2022-10-31T06:40:54;15.27;;;2.47;;
37231;SDS011;23125;48.156;15.954;2022-10-31T06:43:20;11.35;;;2.42;;
37231;SDS011;23125;48.156;15.954;2022-10-31T06:45:47;8.68;;;3.33;;
37231;SDS011;23125;48.156;15.954;2022-10-31T06:48:13;14.68;;;3.03;;
37231;SDS011;23125;48.156;15.954;2022-10-31T06:50:39;15.18;;;3.25;;
37231;SDS011;23125;48.156;15.954;2022-10-31T06:53:04;14.23;;;3.05;;
37231;SDS011;23125;48.156;15.954;2022-10-31T06:55:30;10.40;;;2.55;;
37231;SDS011;23125;48.156;15.954;2022-10-31T06:57:57;17.15;;;3.00;;
37231;SDS011;23125;48.156;15.954;2022-10-31T07:00:25;6.55;;;2.97;;
37231;SDS011;23125;48.156;15.954;2022-10-31T07:02:57;10.38;;;3.33;;
37231;SDS011;23125;48.156;15.954;2022-10-31T07:05:29;7.90;;;3.00;;
37231;SDS011;23125;48.156;15.954;2022-10-31T07:07:56;8.68;;;2.65;;
37231;SDS011;23125;48.156;15.954;2022-10-31T07:10:25;4.38;;;2.67;;
37231;SDS011;23125;48.156;15.954;2022-10-31T07:12:57;11.17;;;2.50;;
37231;SDS011;23125;48.156;15.954;2022-10-31T07:15:28;7.60;;;2.38;;
37231;SDS011;23125;48.156;15.954;2022-10-31T07:18:01;10.88;;;2.72;;
37231;SDS011;23125;48.156;15.954;2022-10-31T07:20:28;4.90;;;2.60;;
37231;SDS011;23125;48.156;15.954;2022-10-31T07:22:54;6.00;;;3.08;;
37231;SDS011;23125;48.156;15.954;2022-10-31T07:25:21;5.50;;;2.50;;
37231;SDS011;23125;48.156;15.954;2022-10-31T07:27:48;5.35;;;2.97;;
37231;SDS011;23125;48.156;15.954;2022-10-31T07:30:14;6.13;;;3.85;;
37231;SDS011;23125;48.156;15.954;2022-10-31T07:32:47;7.22;;;3.25;;
37231;SDS011;23125;48.156;15.954;2022-10-31T07:35:15;4.20;;;3.42;;
37231;SDS011;23125;48.156;15.954;2022-10-31T07:37:43;9.43;;;3.97;;
37231;SDS011;23125;48.156;15.954;2022-10-31T07:40:09;5.95;;;3.05;;
37231;SDS011;23125;48.156;15.954;2022-10-31T07:42:39;5.97;;;2.55;;
37231;SDS011;23125;48.156;15.954;2022-10-31T07:45:11;5.18;;;2.55;;
37231;SDS011;23125;48.156;15.954;2022-10-31T07:47:45;5.90;;;2.58;;
37231;SDS011;23125;48.156;15.954;2022-10-31T07:50:14;4.97;;;3.03;;
37231;SDS011;23125;48.156;15.954;2022-10-31T07:52:41;4.03;;;3.00;;
37231;SDS011;23125;48.156;15.954;2022-10-31T07:55:07;6.75;;;4.45;;
37231;SDS011;23125;48.156;15.954;2022-10-31T07:57:34;3.67;;;3.00;;
37231;SDS011;23125;48.156;15.954;2022-10-31T08:00:08;5.57;;;3.28;;
37231;SDS011;23125;48.156;15.954;2022-10-31T08:02:35;3.72;;;3.08;;
37231;SDS011;23125;48.156;15.954;2022-10-31T08:05:01;4.18;;;3.00;;
37231;SDS011;23125;48.156;15.954;2022-10-31T08:07:27;5.03;;;3.05;;
37231;SDS011;23125;48.156;15.954;2022-10-31T08:09:54;5.57;;;3.20;;
37231;SDS011;23125;48.156;15.954;2022-10-31T08:12:20;3.85;;;3.05;;
37231;SDS011;23125;48.156;15.954;2022-10-31T08:14:47;4.03;;;2.80;;
37231;SDS011;23125;48.156;15.954;2022-10-31T08:17:13;3.05;;;2.65;;
37231;SDS011;23125;48.156;15.954;2022-10-31T08:19:39;3.70;;;2.90;;
37231;SDS011;23125;48.156;15.954;2022-10-31T08:22:05;3.70;;;2.83;;
37231;SDS011;23125;48.156;15.954;2022-10-31T08:24:30;3.15;;;2.63;;
37231;SDS011;23125;48.156;15.954;2022-10-31T08:26:56;5.70;;;3.20;;
37231;SDS011;23125;48.156;15.954;2022-10-31T08:29:22;3.72;;;3.00;;
37231;SDS011;23125;48.156;15.954;2022-10-31T08:31:48;4.85;;;3.28;;
37231;SDS011;23125;48.156;15.954;2022-10-31T08:34:14;3.85;;;3.33;;
37231;SDS011;23125;48.156;15.954;2022-10-31T08:36:39;3.78;;;3.00;;
37231;SDS011;23125;48.156;15.954;2022-10-31T08:39:05;4.68;;;2.90;;
37231;SDS011;23125;48.156;15.954;2022-10-31T08:41:31;4.70;;;3.13;;
37231;SDS011;23125;48.156;15.954;2022-10-31T08:43:57;4.80;;;2.92;;
37231;SDS011;23125;48.156;15.954;2022-10-31T08:46:23;4.20;;;2.97;;
37231;SDS011;23125;48.156;15.954;2022-10-31T08:48:48;4.25;;;3.00;;
37231;SDS011;23125;48.156;15.954;2022-10-31T08:51:15;3.58;;;3.00;;
37231;SDS011;23125;48.156;15.954;2022-10-31T08:53:40;3.25;;;2.95;;
37231;SDS011;23125;48.156;15.954;2022-10-31T08:56:06;4.10;;;2.85;;
37231;SDS011;23125;48.156;15.954;2022-10-31T08:58:32;4.28;;;3.15;;
37231;SDS011;23125;48.156;15.954;2022-10-31T09:00:58;3.17;;;2.80;;
37231;SDS011;23125;48.156;15.954;2022-10-31T09:03:27;3.85;;;3.45;;
37231;SDS011;23125;48.156;15.954;2022-10-31T09:05:56;3.22;;;2.88;;
37231;SDS011;23125;48.156;15.954;2022-10-31T09:08:24;3.92;;;2.90;;
37231;SDS011;23125;48.156;15.954;2022-10-31T09:10:50;6.47;;;3.33;;
37231;SDS011;23125;48.156;15.954;2022-10-31T09:13:17;3.55;;;2.80;;
37231;SDS011;23125;48.156;15.954;2022-10-31T09:15:45;3.65;;;2.65;;
37231;SDS011;23125;48.156;15.954;2022-10-31T09:18:14;3.88;;;2.90;;
37231;SDS011;23125;48.156;15.954;2022-10-31T09:20:42;3.05;;;2.60;;
37231;SDS011;23125;48.156;15.954;2022-10-31T09:23:19;4.45;;;2.78;;
37231;SDS011;23125;48.156;15.954;2022-10-31T09:25:46;5.05;;;3.13;;
37231;SDS011;23125;48.156;15.954;2022-10-31T09:28:13;3.78;;;2.75;;
37231;SDS011;23125;48.156;15.954;2022-10-31T09:30:41;3.08;;;2.13;;
37231;SDS011;23125;48.156;15.954;2022-10-31T09:33:10;3.17;;;2.47;;
37231;SDS011;23125;48.156;15.954;2022-10-31T09:35:37;5.40;;;3.13;;
37231;SDS011;23125;48.156;15.954;2022-10-31T09:38:05;4.07;;;2.97;;
37231;SDS011;23125;48.156;15.954;2022-10-31T09:40:38;3.47;;;2.58;;
37231;SDS011;23125;48.156;15.954;2022-10-31T09:48:50;5.13;;;2.97;;
37231;SDS011;23125;48.156;15.954;2022-10-31T09:51:39;6.13;;;3.88;;
37231;SDS011;23125;48.156;15.954;2022-10-31T09:56:40;4.55;;;3.70;;
37231;SDS011;23125;48.156;15.954;2022-10-31T09:59:12;4.68;;;3.83;;
37231;SDS011;23125;48.156;15.954;2022-10-31T10:02:00;3.58;;;3.28;;
37231;SDS011;23125;48.156;15.954;2022-10-31T10:04:41;4.78;;;3.88;;
37231;SDS011;23125;48.156;15.954;2022-10-31T10:07:17;4.15;;;3.75;;
37231;SDS011;23125;48.156;15.954;2022-10-31T10:10:14;5.57;;;3.72;;
37231;SDS011;23125;48.156;15.954;2022-10-31T10:18:46;8.35;;;4.97;;
37231;SDS011;23125;48.156;15.954;2022-10-31T10:21:25;5.95;;;4.82;;
37231;SDS011;23125;48.156;15.954;2022-10-31T10:26:57;4.68;;;4.03;;
37231;SDS011;23125;48.156;15.954;2022-10-31T10:29:44;6.65;;;4.63;;
37231;SDS011;23125;48.156;15.954;2022-10-31T10:32:26;7.03;;;4.78;;
37231;SDS011;23125;48.156;15.954;2022-10-31T10:34:55;4.85;;;4.35;;
37231;SDS011;23125;48.156;15.954;2022-10-31T10:37:33;6.80;;;4.75;;
37231;SDS011;23125;48.156;15.954;2022-10-31T10:40:11;7.03;;;4.57;;
37231;SDS011;23125;48.156;15.954;2022-10-31T10:42:43;7.07;;;4.40;;
37231;SDS011;23125;48.156;15.954;2022-10-31T10:45:37;6.30;;;4.63;;
37231;SDS011;23125;48.156;15.954;2022-10-31T10:48:27;6.78;;;4.32;;
37231;SDS011;23125;48.156;15.954;2022-10-31T10:51:20;4.70;;;3.78;;
37231;SDS011;23125;48.156;15.954;2022-10-31T10:56:43;6.55;;;4.82;;
37231;SDS011;23125;48.156;15.954;2022-10-31T10:59:44;5.53;;;4.32;;
37231;SDS011;23125;48.156;15.954;2022-10-31T11:02:18;5.63;;;4.35;;
37231;SDS011;23125;48.156;15.954;2022-10-31T11:04:47;7.65;;;4.88;;
37231;SDS011;23125;48.156;15.954;2022-10-31T11:07:17;5.32;;;4.22;;
37231;SDS011;23125;48.156;15.954;2022-10-31T11:09:43;5.38;;;3.97;;
37231;SDS011;23125;48.156;15.954;2022-10-31T11:12:20;5.18;;;3.78;;
37231;SDS011;23125;48.156;15.954;2022-10-31T11:14:58;7.90;;;4.65;;
37231;SDS011;23125;48.156;15.954;2022-10-31T11:17:31;5.18;;;3.88;;
37231;SDS011;23125;48.156;15.954;2022-10-31T11:20:03;6.78;;;3.60;;
37231;SDS011;23125;48.156;15.954;2022-10-31T11:22:30;5.75;;;3.70;;
37231;SDS011;23125;48.156;15.954;2022-10-31T11:24:55;4.30;;;3.67;;
37231;SDS011;23125;48.156;15.954;2022-10-31T11:27:23;4.55;;;3.55;;
37231;SDS011;23125;48.156;15.954;2022-10-31T11:29:50;6.53;;;3.55;;
37231;SDS011;23125;48.156;15.954;2022-10-31T11:32:18;4.03;;;3.63;;
37231;SDS011;23125;48.156;15.954;2022-10-31T11:34:45;6.40;;;4.38;;
37231;SDS011;23125;48.156;15.954;2022-10-31T11:37:24;5.28;;;4.38;;
37231;SDS011;23125;48.156;15.954;2022-10-31T11:39:57;6.07;;;4.13;;
37231;SDS011;23125;48.156;15.954;2022-10-31T11:42:26;5.63;;;4.40;;
37231;SDS011;23125;48.156;15.954;2022-10-31T11:44:55;6.20;;;5.07;;
37231;SDS011;23125;48.156;15.954;2022-10-31T11:47:25;6.43;;;4.85;;
37231;SDS011;23125;48.156;15.954;2022-10-31T11:49:53;5.60;;;4.45;;
37231;SDS011;23125;48.156;15.954;2022-10-31T11:54:49;5.88;;;4.95;;
37231;SDS011;23125;48.156;15.954;2022-10-31T11:57:45;8.95;;;5.47;;
37231;SDS011;23125;48.156;15.954;2022-10-31T12:06:07;8.32;;;6.47;;
37231;SDS011;23125;48.156;15.954;2022-10-31T12:08:44;11.02;;;7.07;;
37231;SDS011;23125;48.156;15.954;2022-10-31T12:11:31;9.15;;;7.43;;
37231;SDS011;23125;48.156;15.954;2022-10-31T12:14:06;8.30;;;6.90;;
37231;SDS011;23125;48.156;15.954;2022-10-31T12:16:50;7.85;;;6.55;;
37231;SDS011;23125;48.156;15.954;2022-10-31T12:19:31;10.23;;;7.40;;
37231;SDS011;23125;48.156;15.954;2022-10-31T12:30:17;12.65;;;9.30;;
37231;SDS011;23125;48.156;15.954;2022-10-31T12:49:34;15.40;;;10.75;;
37231;SDS011;23125;48.156;15.954;2022-10-31T12:52:19;13.82;;;10.55;;
37231;SDS011;23125;48.156;15.954;2022-10-31T12:54:58;18.40;;;11.65;;
37231;SDS011;23125;48.156;15.954;2022-10-31T12:57:45;17.58;;;12.27;;
37231;SDS011;23125;48.156;15.954;2022-10-31T13:00:16;15.63;;;11.13;;
37231;SDS011;23125;48.156;15.954;2022-10-31T13:02:46;15.30;;;11.18;;
37231;SDS011;23125;48.156;15.954;2022-10-31T13:05:33;16.45;;;11.70;;
37231;SDS011;23125;48.156;15.954;2022-10-31T13:08:11;16.80;;;11.10;;
37231;SDS011;23125;48.156;15.954;2022-10-31T13:16:11;16.58;;;12.02;;
37231;SDS011;23125;48.156;15.954;2022-10-31T13:18:57;16.77;;;11.00;;
37231;SDS011;23125;48.156;15.954;2022-10-31T13:21:44;16.48;;;11.63;;
37231;SDS011;23125;48.156;15.954;2022-10-31T13:30:19;17.27;;;11.50;;
37231;SDS011;23125;48.156;15.954;2022-10-31T13:46:37;17.77;;;11.00;;
37231;SDS011;23125;48.156;15.954;2022-10-31T13:54:52;17.77;;;11.63;;
37231;SDS011;23125;48.156;15.954;2022-10-31T13:57:43;20.23;;;12.15;;
37231;SDS011;23125;48.156;15.954;2022-10-31T14:02:53;17.15;;;11.85;;
37231;SDS011;23125;48.156;15.954;2022-10-31T14:05:29;18.13;;;11.85;;
37231;SDS011;23125;48.156;15.954;2022-10-31T14:08:01;19.23;;;11.75;;
37231;SDS011;23125;48.156;15.954;2022-10-31T14:10:29;18.92;;;11.95;;
37231;SDS011;23125;48.156;15.954;2022-10-31T14:13:06;18.23;;;12.05;;
37231;SDS011;23125;48.156;15.954;2022-10-31T14:15:42;16.50;;;11.48;;
37231;SDS011;23125;48.156;15.954;2022-10-31T14:18:39;16.40;;;11.60;;
37231;SDS011;23125;48.156;15.954;2022-10-31T14:21:16;18.65;;;12.38;;
37231;SDS011;23125;48.156;15.954;2022-10-31T14:23:47;18.25;;;12.32;;
37231;SDS011;23125;48.156;15.954;2022-10-31T14:28:52;16.95;;;11.35;;
37231;SDS011;23125;48.156;15.954;2022-10-31T14:34:03;17.23;;;12.45;;
37231;SDS011;23125;48.156;15.954;2022-10-31T14:36:42;19.17;;;13.30;;
37231;SDS011;23125;48.156;15.954;2022-10-31T14:52:29;20.10;;;12.82;;
37231;SDS011;23125;48.156;15.954;2022-10-31T14:54:56;30.65;;;16.27;;
37231;SDS011;23125;48.156;15.954;2022-10-31T14:59:55;18.48;;;12.68;;
37231;SDS011;23125;48.156;15.954;2022-10-31T15:04:54;19.92;;;11.50;;
37231;SDS011;23125;48.156;15.954;2022-10-31T15:07:23;15.20;;;11.77;;
37231;SDS011;23125;48.156;15.954;2022-10-31T15:10:04;19.83;;;10.95;;
37231;SDS011;23125;48.156;15.954;2022-10-31T15:12:43;16.35;;;11.63;;
37231;SDS011;23125;48.156;15.954;2022-10-31T15:15:19;14.82;;;11.13;;
37231;SDS011;23125;48.156;15.954;2022-10-31T15:17:57;15.13;;;11.10;;
37231;SDS011;23125;48.156;15.954;2022-10-31T15:20:25;15.32;;;10.75;;
37231;SDS011;23125;48.156;15.954;2022-10-31T15:22:54;16.13;;;11.10;;
37231;SDS011;23125;48.156;15.954;2022-10-31T15:25:22;13.57;;;10.13;;
37231;SDS011;23125;48.156;15.954;2022-10-31T15:27:51;13.13;;;9.93;;
37231;SDS011;23125;48.156;15.954;2022-10-31T15:30:22;11.05;;;7.65;;
37231;SDS011;23125;48.156;15.954;2022-10-31T15:32:49;10.30;;;7.45;;
37231;SDS011;23125;48.156;15.954;2022-10-31T15:35:23;8.90;;;6.70;;
37231;SDS011;23125;48.156;15.954;2022-10-31T15:37:51;9.80;;;6.95;;
37231;SDS011;23125;48.156;15.954;2022-10-31T15:40:19;8.43;;;6.68;;
37231;SDS011;23125;48.156;15.954;2022-10-31T15:42:57;12.15;;;7.55;;
37231;SDS011;23125;48.156;15.954;2022-10-31T15:45:26;8.20;;;6.83;;
37231;SDS011;23125;48.156;15.954;2022-10-31T15:48:12;9.15;;;7.18;;
37231;SDS011;23125;48.156;15.954;2022-10-31T15:50:47;9.80;;;6.78;;
37231;SDS011;23125;48.156;15.954;2022-10-31T15:53:23;7.68;;;6.22;;
37231;SDS011;23125;48.156;15.954;2022-10-31T15:55:54;9.80;;;6.68;;
37231;SDS011;23125;48.156;15.954;2022-10-31T15:58:25;9.90;;;6.75;;
37231;SDS011;23125;48.156;15.954;2022-10-31T16:01:00;8.32;;;7.40;;
37231;SDS011;23125;48.156;15.954;2022-10-31T16:03:32;8.57;;;6.32;;
37231;SDS011;23125;48.156;15.954;2022-10-31T16:05:59;8.68;;;7.20;;
37231;SDS011;23125;48.156;15.954;2022-10-31T16:13:36;8.27;;;6.22;;
37231;SDS011;23125;48.156;15.954;2022-10-31T16:16:13;11.73;;;6.70;;
37231;SDS011;23125;48.156;15.954;2022-10-31T16:18:41;8.30;;;6.53;;
37231;SDS011;23125;48.156;15.954;2022-10-31T16:21:08;9.05;;;6.93;;
37231;SDS011;23125;48.156;15.954;2022-10-31T16:23:35;9.10;;;6.63;;
37231;SDS011;23125;48.156;15.954;2022-10-31T16:26:07;8.77;;;6.13;;
37231;SDS011;23125;48.156;15.954;2022-10-31T16:31:00;8.85;;;6.80;;
37231;SDS011;23125;48.156;15.954;2022-10-31T16:33:33;9.05;;;7.05;;
37231;SDS011;23125;48.156;15.954;2022-10-31T16:38:55;9.45;;;7.82;;
37231;SDS011;23125;48.156;15.954;2022-10-31T16:43:48;8.00;;;6.60;;
37231;SDS011;23125;48.156;15.954;2022-10-31T16:46:21;9.48;;;6.80;;
37231;SDS011;23125;48.156;15.954;2022-10-31T16:48:52;10.98;;;7.38;;
37231;SDS011;23125;48.156;15.954;2022-10-31T16:51:19;10.65;;;7.55;;
37231;SDS011;23125;48.156;15.954;2022-10-31T16:53:45;12.00;;;6.60;;
37231;SDS011;23125;48.156;15.954;2022-10-31T16:56:15;9.02;;;6.72;;
37231;SDS011;23125;48.156;15.954;2022-10-31T16:58:43;8.43;;;6.63;;
37231;SDS011;23125;48.156;15.954;2022-10-31T17:01:10;9.82;;;7.00;;
37231;SDS011;23125;48.156;15.954;2022-10-31T17:03:37;9.10;;;7.10;;
37231;SDS011;23125;48.156;15.954;2022-10-31T17:06:04;7.47;;;6.22;;
37231;SDS011;23125;48.156;15.954;2022-10-31T17:08:30;9.48;;;7.10;;
37231;SDS011;23125;48.156;15.954;2022-10-31T17:10:56;7.95;;;6.85;;
37231;SDS011;23125;48.156;15.954;2022-10-31T17:13:27;8.32;;;6.38;;
37231;SDS011;23125;48.156;15.954;2022-10-31T17:15:56;9.27;;;6.80;;
37231;SDS011;23125;48.156;15.954;2022-10-31T17:18:24;9.57;;;6.33;;
37231;SDS011;23125;48.156;15.954;2022-10-31T17:20:50;11.30;;;7.00;;
37231;SDS011;23125;48.156;15.954;2022-10-31T17:23:23;7.60;;;6.28;;
37231;SDS011;23125;48.156;15.954;2022-10-31T17:25:49;7.63;;;6.10;;